Terminal Aerodrome Forecast
Issued by NWS

Home | Current Version | Previous Version | Text Only | Print | Product List | Glossary On
Versions: 1 2 3 4 5 6 7 8 9 10 11 12
640
FTUS45 KRIW 230530
TAFLND
TAF
KLND 230530Z 2306/2406 24007KT P6SM SCT080
     FM231600 VRB05KT P6SM SCT060
     FM240100 24005KT P6SM FEW070=

USA.gov is the U.S. government's official web portal to all federal, state and local government web resources and services.